sensor_id;sensor_type;location;lat;lon;timestamp;P1;durP1;ratioP1;P2;durP2;ratioP2
11113;SDS011;5610;52.154;9.198;2023-08-12T00:01:10;4.50;;;3.70;;
11113;SDS011;5610;52.154;9.198;2023-08-12T00:03:56;6.33;;;4.53;;
11113;SDS011;5610;52.154;9.198;2023-08-12T00:06:42;14.47;;;5.57;;
11113;SDS011;5610;52.154;9.198;2023-08-12T00:09:28;7.87;;;4.73;;
11113;SDS011;5610;52.154;9.198;2023-08-12T00:12:13;9.10;;;5.27;;
11113;SDS011;5610;52.154;9.198;2023-08-12T00:14:59;10.57;;;4.50;;
11113;SDS011;5610;52.154;9.198;2023-08-12T00:17:44;4.93;;;4.20;;
11113;SDS011;5610;52.154;9.198;2023-08-12T00:20:30;6.60;;;4.40;;
11113;SDS011;5610;52.154;9.198;2023-08-12T00:23:16;6.83;;;4.87;;
11113;SDS011;5610;52.154;9.198;2023-08-12T00:26:02;8.00;;;5.60;;
11113;SDS011;5610;52.154;9.198;2023-08-12T00:28:48;14.27;;;5.43;;
11113;SDS011;5610;52.154;9.198;2023-08-12T00:31:33;7.63;;;5.20;;
11113;SDS011;5610;52.154;9.198;2023-08-12T00:34:18;9.93;;;5.63;;
11113;SDS011;5610;52.154;9.198;2023-08-12T00:37:03;13.37;;;5.20;;
11113;SDS011;5610;52.154;9.198;2023-08-12T00:39:50;5.90;;;4.83;;
11113;SDS011;5610;52.154;9.198;2023-08-12T00:42:35;10.97;;;6.07;;
11113;SDS011;5610;52.154;9.198;2023-08-12T00:45:21;8.83;;;5.17;;
11113;SDS011;5610;52.154;9.198;2023-08-12T00:48:06;9.80;;;5.83;;
11113;SDS011;5610;52.154;9.198;2023-08-12T00:50:52;6.50;;;4.87;;
11113;SDS011;5610;52.154;9.198;2023-08-12T00:53:38;7.47;;;5.40;;
11113;SDS011;5610;52.154;9.198;2023-08-12T00:56:25;10.00;;;5.40;;
11113;SDS011;5610;52.154;9.198;2023-08-12T00:59:11;11.73;;;5.20;;
11113;SDS011;5610;52.154;9.198;2023-08-12T01:01:57;8.70;;;5.43;;
11113;SDS011;5610;52.154;9.198;2023-08-12T01:04:43;10.23;;;5.43;;
11113;SDS011;5610;52.154;9.198;2023-08-12T01:07:28;6.80;;;5.10;;
11113;SDS011;5610;52.154;9.198;2023-08-12T01:10:13;10.17;;;5.87;;
11113;SDS011;5610;52.154;9.198;2023-08-12T01:13:05;7.00;;;4.83;;
11113;SDS011;5610;52.154;9.198;2023-08-12T01:15:54;9.60;;;5.40;;
11113;SDS011;5610;52.154;9.198;2023-08-12T01:18:43;11.67;;;5.40;;
11113;SDS011;5610;52.154;9.198;2023-08-12T01:21:29;6.77;;;5.30;;
11113;SDS011;5610;52.154;9.198;2023-08-12T01:24:16;8.27;;;5.50;;
11113;SDS011;5610;52.154;9.198;2023-08-12T01:27:01;5.93;;;4.90;;
11113;SDS011;5610;52.154;9.198;2023-08-12T01:29:47;5.87;;;4.73;;
11113;SDS011;5610;52.154;9.198;2023-08-12T01:32:36;6.57;;;5.10;;
11113;SDS011;5610;52.154;9.198;2023-08-12T01:35:27;6.43;;;4.90;;
11113;SDS011;5610;52.154;9.198;2023-08-12T01:38:17;11.73;;;4.90;;
11113;SDS011;5610;52.154;9.198;2023-08-12T01:41:05;7.43;;;4.70;;
11113;SDS011;5610;52.154;9.198;2023-08-12T01:43:54;7.43;;;4.93;;
11113;SDS011;5610;52.154;9.198;2023-08-12T01:46:39;7.23;;;4.30;;
11113;SDS011;5610;52.154;9.198;2023-08-12T01:49:26;5.20;;;4.70;;
11113;SDS011;5610;52.154;9.198;2023-08-12T01:52:12;5.80;;;4.83;;
11113;SDS011;5610;52.154;9.198;2023-08-12T01:54:57;12.07;;;4.50;;
11113;SDS011;5610;52.154;9.198;2023-08-12T01:57:44;9.03;;;5.00;;
11113;SDS011;5610;52.154;9.198;2023-08-12T02:00:29;5.60;;;4.33;;
11113;SDS011;5610;52.154;9.198;2023-08-12T02:03:14;6.80;;;4.47;;
11113;SDS011;5610;52.154;9.198;2023-08-12T02:05:59;8.33;;;4.93;;
11113;SDS011;5610;52.154;9.198;2023-08-12T02:08:45;8.07;;;4.60;;
11113;SDS011;5610;52.154;9.198;2023-08-12T02:11:30;5.13;;;4.53;;
11113;SDS011;5610;52.154;9.198;2023-08-12T02:14:16;7.47;;;5.10;;
11113;SDS011;5610;52.154;9.198;2023-08-12T02:17:01;6.20;;;5.10;;
11113;SDS011;5610;52.154;9.198;2023-08-12T02:19:49;6.13;;;5.37;;
11113;SDS011;5610;52.154;9.198;2023-08-12T02:22:34;6.97;;;5.47;;
11113;SDS011;5610;52.154;9.198;2023-08-12T02:25:19;7.17;;;5.23;;
11113;SDS011;5610;52.154;9.198;2023-08-12T02:28:04;6.07;;;5.57;;
11113;SDS011;5610;52.154;9.198;2023-08-12T02:30:51;6.57;;;5.30;;
11113;SDS011;5610;52.154;9.198;2023-08-12T02:33:36;7.67;;;5.83;;
11113;SDS011;5610;52.154;9.198;2023-08-12T02:36:22;6.40;;;5.80;;
11113;SDS011;5610;52.154;9.198;2023-08-12T02:39:07;9.60;;;5.60;;
11113;SDS011;5610;52.154;9.198;2023-08-12T02:41:52;7.17;;;6.33;;
11113;SDS011;5610;52.154;9.198;2023-08-12T02:44:37;6.07;;;5.57;;
11113;SDS011;5610;52.154;9.198;2023-08-12T02:47:23;14.33;;;5.70;;
11113;SDS011;5610;52.154;9.198;2023-08-12T02:50:09;9.30;;;6.27;;
11113;SDS011;5610;52.154;9.198;2023-08-12T02:52:54;5.97;;;5.23;;
11113;SDS011;5610;52.154;9.198;2023-08-12T02:55:39;6.43;;;5.67;;
11113;SDS011;5610;52.154;9.198;2023-08-12T02:58:25;6.33;;;5.70;;
11113;SDS011;5610;52.154;9.198;2023-08-12T03:01:10;7.87;;;7.10;;
11113;SDS011;5610;52.154;9.198;2023-08-12T03:03:57;6.87;;;6.27;;
11113;SDS011;5610;52.154;9.198;2023-08-12T03:06:42;7.50;;;6.30;;
11113;SDS011;5610;52.154;9.198;2023-08-12T03:09:27;8.60;;;7.20;;
11113;SDS011;5610;52.154;9.198;2023-08-12T03:12:13;8.00;;;7.27;;
11113;SDS011;5610;52.154;9.198;2023-08-12T03:14:58;7.70;;;6.90;;
11113;SDS011;5610;52.154;9.198;2023-08-12T03:17:44;8.40;;;7.53;;
11113;SDS011;5610;52.154;9.198;2023-08-12T03:20:31;8.80;;;8.10;;
11113;SDS011;5610;52.154;9.198;2023-08-12T03:23:16;8.07;;;7.30;;
11113;SDS011;5610;52.154;9.198;2023-08-12T03:26:02;10.47;;;9.37;;
11113;SDS011;5610;52.154;9.198;2023-08-12T03:28:48;13.87;;;10.10;;
11113;SDS011;5610;52.154;9.198;2023-08-12T03:31:36;12.33;;;10.97;;
11113;SDS011;5610;52.154;9.198;2023-08-12T03:34:22;11.60;;;10.60;;
11113;SDS011;5610;52.154;9.198;2023-08-12T03:37:08;10.97;;;9.93;;
11113;SDS011;5610;52.154;9.198;2023-08-12T03:39:54;11.07;;;9.97;;
11113;SDS011;5610;52.154;9.198;2023-08-12T03:42:39;11.23;;;9.87;;
11113;SDS011;5610;52.154;9.198;2023-08-12T03:45:24;11.27;;;9.60;;
11113;SDS011;5610;52.154;9.198;2023-08-12T03:48:10;11.83;;;10.53;;
11113;SDS011;5610;52.154;9.198;2023-08-12T03:50:56;13.40;;;9.40;;
11113;SDS011;5610;52.154;9.198;2023-08-12T03:53:42;10.00;;;9.10;;
11113;SDS011;5610;52.154;9.198;2023-08-12T03:56:28;10.47;;;9.50;;
11113;SDS011;5610;52.154;9.198;2023-08-12T03:59:14;10.70;;;9.83;;
11113;SDS011;5610;52.154;9.198;2023-08-12T04:01:59;11.40;;;10.30;;
11113;SDS011;5610;52.154;9.198;2023-08-12T04:04:44;11.40;;;10.20;;
11113;SDS011;5610;52.154;9.198;2023-08-12T04:07:30;10.17;;;9.17;;
11113;SDS011;5610;52.154;9.198;2023-08-12T04:10:18;11.10;;;10.00;;
11113;SDS011;5610;52.154;9.198;2023-08-12T04:13:03;10.90;;;9.90;;
11113;SDS011;5610;52.154;9.198;2023-08-12T04:15:51;9.93;;;9.03;;
11113;SDS011;5610;52.154;9.198;2023-08-12T04:18:37;11.10;;;9.87;;
11113;SDS011;5610;52.154;9.198;2023-08-12T04:21:23;10.00;;;8.93;;
11113;SDS011;5610;52.154;9.198;2023-08-12T04:24:09;10.50;;;9.47;;
11113;SDS011;5610;52.154;9.198;2023-08-12T04:26:55;11.97;;;10.77;;
11113;SDS011;5610;52.154;9.198;2023-08-12T04:29:40;11.17;;;10.10;;
11113;SDS011;5610;52.154;9.198;2023-08-12T04:32:26;11.20;;;10.20;;
11113;SDS011;5610;52.154;9.198;2023-08-12T04:35:12;13.63;;;11.80;;
11113;SDS011;5610;52.154;9.198;2023-08-12T04:37:57;12.03;;;10.90;;
11113;SDS011;5610;52.154;9.198;2023-08-12T04:40:43;12.70;;;11.53;;
11113;SDS011;5610;52.154;9.198;2023-08-12T04:43:30;11.93;;;10.87;;
11113;SDS011;5610;52.154;9.198;2023-08-12T04:46:16;13.70;;;12.40;;
11113;SDS011;5610;52.154;9.198;2023-08-12T04:49:02;13.53;;;12.23;;
11113;SDS011;5610;52.154;9.198;2023-08-12T04:51:48;13.47;;;12.17;;
11113;SDS011;5610;52.154;9.198;2023-08-12T04:54:33;12.10;;;10.80;;
11113;SDS011;5610;52.154;9.198;2023-08-12T04:57:18;10.27;;;9.27;;
11113;SDS011;5610;52.154;9.198;2023-08-12T05:00:05;11.23;;;10.23;;
11113;SDS011;5610;52.154;9.198;2023-08-12T05:02:52;10.43;;;9.43;;
11113;SDS011;5610;52.154;9.198;2023-08-12T05:05:37;11.50;;;10.30;;
11113;SDS011;5610;52.154;9.198;2023-08-12T05:08:23;11.70;;;10.70;;
11113;SDS011;5610;52.154;9.198;2023-08-12T05:11:08;12.33;;;11.13;;
11113;SDS011;5610;52.154;9.198;2023-08-12T05:13:53;10.43;;;9.60;;
11113;SDS011;5610;52.154;9.198;2023-08-12T05:16:40;11.83;;;10.67;;
11113;SDS011;5610;52.154;9.198;2023-08-12T05:19:25;10.73;;;9.73;;
11113;SDS011;5610;52.154;9.198;2023-08-12T05:22:11;12.07;;;10.80;;
11113;SDS011;5610;52.154;9.198;2023-08-12T05:24:56;10.67;;;9.67;;
11113;SDS011;5610;52.154;9.198;2023-08-12T05:27:42;11.10;;;10.17;;
11113;SDS011;5610;52.154;9.198;2023-08-12T05:30:27;12.00;;;10.90;;
11113;SDS011;5610;52.154;9.198;2023-08-12T05:33:13;11.33;;;10.30;;
11113;SDS011;5610;52.154;9.198;2023-08-12T05:35:59;13.20;;;12.03;;
11113;SDS011;5610;52.154;9.198;2023-08-12T05:38:44;15.17;;;11.50;;
11113;SDS011;5610;52.154;9.198;2023-08-12T05:41:29;11.67;;;10.57;;
11113;SDS011;5610;52.154;9.198;2023-08-12T05:44:15;10.80;;;9.73;;
11113;SDS011;5610;52.154;9.198;2023-08-12T05:47:00;11.20;;;10.20;;
11113;SDS011;5610;52.154;9.198;2023-08-12T05:49:47;11.80;;;10.60;;
11113;SDS011;5610;52.154;9.198;2023-08-12T05:52:32;11.07;;;9.93;;
11113;SDS011;5610;52.154;9.198;2023-08-12T05:55:18;10.30;;;9.47;;
11113;SDS011;5610;52.154;9.198;2023-08-12T05:58:03;11.43;;;10.23;;
11113;SDS011;5610;52.154;9.198;2023-08-12T06:00:48;10.77;;;9.77;;
11113;SDS011;5610;52.154;9.198;2023-08-12T06:03:34;10.40;;;9.23;;
11113;SDS011;5610;52.154;9.198;2023-08-12T06:06:20;10.43;;;9.37;;
11113;SDS011;5610;52.154;9.198;2023-08-12T06:09:06;9.27;;;8.33;;
11113;SDS011;5610;52.154;9.198;2023-08-12T06:11:52;10.83;;;8.73;;
11113;SDS011;5610;52.154;9.198;2023-08-12T06:14:37;9.60;;;8.60;;
11113;SDS011;5610;52.154;9.198;2023-08-12T06:17:23;10.00;;;9.10;;
11113;SDS011;5610;52.154;9.198;2023-08-12T06:20:08;10.27;;;9.27;;
11113;SDS011;5610;52.154;9.198;2023-08-12T06:22:55;9.37;;;8.37;;
11113;SDS011;5610;52.154;9.198;2023-08-12T06:25:40;11.30;;;9.03;;
11113;SDS011;5610;52.154;9.198;2023-08-12T06:28:26;13.20;;;9.50;;
11113;SDS011;5610;52.154;9.198;2023-08-12T06:31:11;9.77;;;8.80;;
11113;SDS011;5610;52.154;9.198;2023-08-12T06:33:57;11.87;;;8.50;;
11113;SDS011;5610;52.154;9.198;2023-08-12T06:36:43;10.60;;;9.50;;
11113;SDS011;5610;52.154;9.198;2023-08-12T06:39:29;10.00;;;8.07;;
11113;SDS011;5610;52.154;9.198;2023-08-12T06:42:14;10.33;;;9.43;;
11113;SDS011;5610;52.154;9.198;2023-08-12T06:45:00;8.97;;;8.07;;
11113;SDS011;5610;52.154;9.198;2023-08-12T06:47:47;10.27;;;9.07;;
11113;SDS011;5610;52.154;9.198;2023-08-12T06:50:32;11.10;;;10.00;;
11113;SDS011;5610;52.154;9.198;2023-08-12T06:53:18;11.30;;;10.20;;
11113;SDS011;5610;52.154;9.198;2023-08-12T06:56:04;16.60;;;10.97;;
11113;SDS011;5610;52.154;9.198;2023-08-12T06:58:50;11.43;;;10.30;;
11113;SDS011;5610;52.154;9.198;2023-08-12T07:01:35;12.93;;;10.10;;
11113;SDS011;5610;52.154;9.198;2023-08-12T07:04:20;11.13;;;10.17;;
11113;SDS011;5610;52.154;9.198;2023-08-12T07:07:05;10.57;;;9.67;;
11113;SDS011;5610;52.154;9.198;2023-08-12T07:09:50;11.40;;;10.23;;
11113;SDS011;5610;52.154;9.198;2023-08-12T07:12:37;12.07;;;11.07;;
11113;SDS011;5610;52.154;9.198;2023-08-12T07:15:22;12.43;;;11.13;;
11113;SDS011;5610;52.154;9.198;2023-08-12T07:18:07;13.40;;;12.20;;
11113;SDS011;5610;52.154;9.198;2023-08-12T07:20:52;13.53;;;12.43;;
11113;SDS011;5610;52.154;9.198;2023-08-12T07:23:37;12.70;;;11.50;;
11113;SDS011;5610;52.154;9.198;2023-08-12T07:26:22;11.87;;;10.80;;
11113;SDS011;5610;52.154;9.198;2023-08-12T07:29:09;13.03;;;11.07;;
11113;SDS011;5610;52.154;9.198;2023-08-12T07:31:55;11.73;;;10.53;;
11113;SDS011;5610;52.154;9.198;2023-08-12T07:34:40;11.93;;;10.73;;
11113;SDS011;5610;52.154;9.198;2023-08-12T07:37:26;11.60;;;10.70;;
11113;SDS011;5610;52.154;9.198;2023-08-12T07:40:11;12.07;;;11.10;;
11113;SDS011;5610;52.154;9.198;2023-08-12T07:42:56;11.37;;;10.47;;
11113;SDS011;5610;52.154;9.198;2023-08-12T07:45:43;12.10;;;11.00;;
11113;SDS011;5610;52.154;9.198;2023-08-12T07:48:28;15.30;;;12.20;;
11113;SDS011;5610;52.154;9.198;2023-08-12T07:51:13;12.13;;;11.13;;
11113;SDS011;5610;52.154;9.198;2023-08-12T07:53:58;11.77;;;10.83;;
11113;SDS011;5610;52.154;9.198;2023-08-12T07:56:44;12.77;;;11.47;;
11113;SDS011;5610;52.154;9.198;2023-08-12T07:59:29;11.80;;;10.70;;
11113;SDS011;5610;52.154;9.198;2023-08-12T08:02:16;12.87;;;11.53;;
11113;SDS011;5610;52.154;9.198;2023-08-12T08:05:01;10.87;;;9.80;;
11113;SDS011;5610;52.154;9.198;2023-08-12T08:07:46;15.23;;;13.83;;
11113;SDS011;5610;52.154;9.198;2023-08-12T08:10:32;14.07;;;12.80;;
11113;SDS011;5610;52.154;9.198;2023-08-12T08:13:17;14.60;;;13.20;;
11113;SDS011;5610;52.154;9.198;2023-08-12T08:16:02;13.50;;;12.10;;
11113;SDS011;5610;52.154;9.198;2023-08-12T08:18:49;14.73;;;13.53;;
11113;SDS011;5610;52.154;9.198;2023-08-12T08:21:35;13.73;;;12.37;;
11113;SDS011;5610;52.154;9.198;2023-08-12T08:24:20;14.40;;;12.87;;
11113;SDS011;5610;52.154;9.198;2023-08-12T08:27:05;14.27;;;12.97;;
11113;SDS011;5610;52.154;9.198;2023-08-12T08:29:50;13.93;;;12.70;;
11113;SDS011;5610;52.154;9.198;2023-08-12T08:32:36;14.57;;;13.27;;
11113;SDS011;5610;52.154;9.198;2023-08-12T08:35:22;14.17;;;13.03;;
11113;SDS011;5610;52.154;9.198;2023-08-12T08:38:08;15.17;;;13.87;;
11113;SDS011;5610;52.154;9.198;2023-08-12T08:40:53;14.23;;;12.80;;
11113;SDS011;5610;52.154;9.198;2023-08-12T08:43:38;12.83;;;11.73;;
11113;SDS011;5610;52.154;9.198;2023-08-12T08:46:27;14.90;;;13.50;;
11113;SDS011;5610;52.154;9.198;2023-08-12T08:49:13;13.23;;;11.93;;
11113;SDS011;5610;52.154;9.198;2023-08-12T08:52:01;13.90;;;12.70;;
11113;SDS011;5610;52.154;9.198;2023-08-12T08:54:46;13.83;;;12.43;;
11113;SDS011;5610;52.154;9.198;2023-08-12T08:57:32;12.70;;;11.60;;
11113;SDS011;5610;52.154;9.198;2023-08-12T09:00:17;13.70;;;12.30;;
11113;SDS011;5610;52.154;9.198;2023-08-12T09:03:03;13.67;;;12.47;;
11113;SDS011;5610;52.154;9.198;2023-08-12T09:05:50;13.60;;;12.43;;
11113;SDS011;5610;52.154;9.198;2023-08-12T09:08:38;13.03;;;11.93;;
11113;SDS011;5610;52.154;9.198;2023-08-12T09:11:29;12.80;;;11.60;;
11113;SDS011;5610;52.154;9.198;2023-08-12T09:14:14;13.13;;;11.83;;
11113;SDS011;5610;52.154;9.198;2023-08-12T09:17:00;13.10;;;11.60;;
11113;SDS011;5610;52.154;9.198;2023-08-12T09:19:46;13.20;;;11.90;;
11113;SDS011;5610;52.154;9.198;2023-08-12T09:22:31;12.47;;;11.47;;
11113;SDS011;5610;52.154;9.198;2023-08-12T09:25:18;14.50;;;13.20;;
11113;SDS011;5610;52.154;9.198;2023-08-12T09:28:05;12.70;;;11.70;;
11113;SDS011;5610;52.154;9.198;2023-08-12T09:30:54;13.87;;;12.53;;
11113;SDS011;5610;52.154;9.198;2023-08-12T09:33:39;13.77;;;12.67;;
11113;SDS011;5610;52.154;9.198;2023-08-12T09:36:27;13.77;;;12.67;;
11113;SDS011;5610;52.154;9.198;2023-08-12T09:39:13;13.40;;;12.20;;
11113;SDS011;5610;52.154;9.198;2023-08-12T09:42:00;14.20;;;12.77;;
11113;SDS011;5610;52.154;9.198;2023-08-12T09:44:45;14.70;;;13.13;;
11113;SDS011;5610;52.154;9.198;2023-08-12T09:47:30;13.90;;;12.60;;
11113;SDS011;5610;52.154;9.198;2023-08-12T09:50:20;14.20;;;12.97;;
11113;SDS011;5610;52.154;9.198;2023-08-12T09:53:05;13.13;;;11.93;;
11113;SDS011;5610;52.154;9.198;2023-08-12T09:55:51;12.53;;;11.33;;
11113;SDS011;5610;52.154;9.198;2023-08-12T09:58:40;10.53;;;9.53;;
11113;SDS011;5610;52.154;9.198;2023-08-12T10:01:28;10.50;;;9.63;;
11113;SDS011;5610;52.154;9.198;2023-08-12T10:04:13;10.70;;;9.73;;
11113;SDS011;5610;52.154;9.198;2023-08-12T10:07:01;9.87;;;8.97;;
11113;SDS011;5610;52.154;9.198;2023-08-12T10:09:48;9.73;;;8.77;;
11113;SDS011;5610;52.154;9.198;2023-08-12T10:12:33;8.40;;;7.50;;
11113;SDS011;5610;52.154;9.198;2023-08-12T10:15:22;7.83;;;7.27;;
11113;SDS011;5610;52.154;9.198;2023-08-12T10:18:07;8.50;;;7.90;;
11113;SDS011;5610;52.154;9.198;2023-08-12T10:20:53;9.07;;;8.17;;
11113;SDS011;5610;52.154;9.198;2023-08-12T10:23:41;8.73;;;7.93;;
11113;SDS011;5610;52.154;9.198;2023-08-12T10:26:28;9.00;;;8.30;;
11113;SDS011;5610;52.154;9.198;2023-08-12T10:29:15;10.13;;;9.27;;
11113;SDS011;5610;52.154;9.198;2023-08-12T10:32:01;8.40;;;7.63;;
11113;SDS011;5610;52.154;9.198;2023-08-12T10:34:46;8.27;;;7.67;;
11113;SDS011;5610;52.154;9.198;2023-08-12T10:37:39;7.67;;;7.07;;
11113;SDS011;5610;52.154;9.198;2023-08-12T10:40:24;6.90;;;6.27;;
11113;SDS011;5610;52.154;9.198;2023-08-12T10:43:11;7.77;;;7.17;;
11113;SDS011;5610;52.154;9.198;2023-08-12T10:45:57;7.10;;;6.60;;
11113;SDS011;5610;52.154;9.198;2023-08-12T10:48:46;5.83;;;5.33;;
11113;SDS011;5610;52.154;9.198;2023-08-12T10:51:43;6.03;;;5.63;;
11113;SDS011;5610;52.154;9.198;2023-08-12T10:54:30;5.23;;;4.83;;
11113;SDS011;5610;52.154;9.198;2023-08-12T10:57:15;5.80;;;5.30;;
11113;SDS011;5610;52.154;9.198;2023-08-12T11:00:00;5.43;;;5.03;;
11113;SDS011;5610;52.154;9.198;2023-08-12T11:02:48;5.10;;;4.60;;
11113;SDS011;5610;52.154;9.198;2023-08-12T11:05:37;5.17;;;4.43;;
11113;SDS011;5610;52.154;9.198;2023-08-12T11:08:26;5.37;;;4.97;;
11113;SDS011;5610;52.154;9.198;2023-08-12T11:11:18;4.90;;;4.50;;
11113;SDS011;5610;52.154;9.198;2023-08-12T11:14:11;4.97;;;4.57;;
11113;SDS011;5610;52.154;9.198;2023-08-12T11:16:58;5.30;;;4.70;;
11113;SDS011;5610;52.154;9.198;2023-08-12T11:19:43;5.57;;;5.17;;
11113;SDS011;5610;52.154;9.198;2023-08-12T11:22:30;5.40;;;5.00;;
11113;SDS011;5610;52.154;9.198;2023-08-12T11:25:16;5.23;;;4.83;;
11113;SDS011;5610;52.154;9.198;2023-08-12T11:28:02;5.00;;;4.57;;
11113;SDS011;5610;52.154;9.198;2023-08-12T11:30:48;5.00;;;4.60;;
11113;SDS011;5610;52.154;9.198;2023-08-12T11:33:34;4.37;;;3.97;;
11113;SDS011;5610;52.154;9.198;2023-08-12T11:36:19;6.37;;;4.03;;
11113;SDS011;5610;52.154;9.198;2023-08-12T11:39:05;3.93;;;3.63;;
11113;SDS011;5610;52.154;9.198;2023-08-12T11:41:51;4.07;;;3.77;;
11113;SDS011;5610;52.154;9.198;2023-08-12T11:44:36;3.13;;;2.93;;
11113;SDS011;5610;52.154;9.198;2023-08-12T11:47:21;3.90;;;3.60;;
11113;SDS011;5610;52.154;9.198;2023-08-12T11:50:07;4.53;;;4.13;;
11113;SDS011;5610;52.154;9.198;2023-08-12T11:52:54;3.63;;;3.33;;
11113;SDS011;5610;52.154;9.198;2023-08-12T11:55:41;3.53;;;3.33;;
11113;SDS011;5610;52.154;9.198;2023-08-12T11:58:31;3.30;;;3.03;;
11113;SDS011;5610;52.154;9.198;2023-08-12T12:01:20;4.37;;;3.87;;
11113;SDS011;5610;52.154;9.198;2023-08-12T12:04:07;4.03;;;3.00;;
11113;SDS011;5610;52.154;9.198;2023-08-12T12:06:55;3.07;;;2.80;;
11113;SDS011;5610;52.154;9.198;2023-08-12T12:09:42;2.90;;;2.33;;
11113;SDS011;5610;52.154;9.198;2023-08-12T12:12:29;2.43;;;2.20;;
11113;SDS011;5610;52.154;9.198;2023-08-12T12:15:15;2.60;;;1.80;;
11113;SDS011;5610;52.154;9.198;2023-08-12T12:18:00;4.20;;;1.70;;
11113;SDS011;5610;52.154;9.198;2023-08-12T12:20:54;1.43;;;1.33;;
11113;SDS011;5610;52.154;9.198;2023-08-12T12:23:40;1.67;;;1.37;;
11113;SDS011;5610;52.154;9.198;2023-08-12T12:26:25;2.07;;;1.87;;
11113;SDS011;5610;52.154;9.198;2023-08-12T12:29:12;1.63;;;1.40;;
11113;SDS011;5610;52.154;9.198;2023-08-12T12:31:57;2.13;;;1.50;;
11113;SDS011;5610;52.154;9.198;2023-08-12T12:34:43;1.70;;;1.37;;
11113;SDS011;5610;52.154;9.198;2023-08-12T12:37:27;1.40;;;1.10;;
11113;SDS011;5610;52.154;9.198;2023-08-12T12:40:13;1.60;;;1.47;;
11113;SDS011;5610;52.154;9.198;2023-08-12T12:42:58;1.33;;;1.23;;
11113;SDS011;5610;52.154;9.198;2023-08-12T12:45:44;1.67;;;1.47;;
11113;SDS011;5610;52.154;9.198;2023-08-12T12:48:30;1.73;;;1.27;;
11113;SDS011;5610;52.154;9.198;2023-08-12T12:51:15;2.30;;;1.40;;
11113;SDS011;5610;52.154;9.198;2023-08-12T12:54:00;2.40;;;1.00;;
11113;SDS011;5610;52.154;9.198;2023-08-12T12:56:46;4.90;;;1.97;;
11113;SDS011;5610;52.154;9.198;2023-08-12T12:59:31;2.30;;;1.27;;
11113;SDS011;5610;52.154;9.198;2023-08-12T13:02:18;1.50;;;1.10;;
11113;SDS011;5610;52.154;9.198;2023-08-12T13:05:03;3.93;;;1.20;;
11113;SDS011;5610;52.154;9.198;2023-08-12T13:07:49;1.37;;;1.20;;
11113;SDS011;5610;52.154;9.198;2023-08-12T13:10:33;1.13;;;1.03;;
11113;SDS011;5610;52.154;9.198;2023-08-12T13:13:18;1.77;;;1.10;;
11113;SDS011;5610;52.154;9.198;2023-08-12T13:16:03;1.40;;;1.30;;
11113;SDS011;5610;52.154;9.198;2023-08-12T13:18:50;4.50;;;1.00;;
11113;SDS011;5610;52.154;9.198;2023-08-12T13:21:36;1.27;;;1.07;;
11113;SDS011;5610;52.154;9.198;2023-08-12T13:24:21;1.57;;;1.13;;
11113;SDS011;5610;52.154;9.198;2023-08-12T13:27:05;1.53;;;0.93;;
11113;SDS011;5610;52.154;9.198;2023-08-12T13:29:51;2.10;;;1.37;;
11113;SDS011;5610;52.154;9.198;2023-08-12T13:32:36;1.40;;;1.20;;
11113;SDS011;5610;52.154;9.198;2023-08-12T13:35:23;1.13;;;1.03;;
11113;SDS011;5610;52.154;9.198;2023-08-12T13:38:08;1.73;;;1.10;;
11113;SDS011;5610;52.154;9.198;2023-08-12T13:40:53;1.53;;;1.10;;
11113;SDS011;5610;52.154;9.198;2023-08-12T13:43:38;2.33;;;1.20;;
11113;SDS011;5610;52.154;9.198;2023-08-12T13:46:23;3.93;;;1.20;;
11113;SDS011;5610;52.154;9.198;2023-08-12T13:49:08;2.07;;;1.40;;
11113;SDS011;5610;52.154;9.198;2023-08-12T13:51:56;1.13;;;1.03;;
11113;SDS011;5610;52.154;9.198;2023-08-12T13:54:43;2.23;;;1.17;;
11113;SDS011;5610;52.154;9.198;2023-08-12T13:57:28;2.60;;;1.30;;
11113;SDS011;5610;52.154;9.198;2023-08-12T14:00:13;3.80;;;1.37;;
11113;SDS011;5610;52.154;9.198;2023-08-12T14:03:00;1.47;;;1.13;;
11113;SDS011;5610;52.154;9.198;2023-08-12T14:05:45;1.90;;;1.13;;
11113;SDS011;5610;52.154;9.198;2023-08-12T14:08:32;1.10;;;1.00;;
11113;SDS011;5610;52.154;9.198;2023-08-12T14:11:17;2.10;;;1.27;;
11113;SDS011;5610;52.154;9.198;2023-08-12T14:14:04;1.43;;;0.93;;
11113;SDS011;5610;52.154;9.198;2023-08-12T14:16:49;2.53;;;1.20;;
11113;SDS011;5610;52.154;9.198;2023-08-12T14:19:34;1.70;;;1.60;;
11113;SDS011;5610;52.154;9.198;2023-08-12T14:22:19;1.73;;;1.20;;
11113;SDS011;5610;52.154;9.198;2023-08-12T14:25:07;1.30;;;1.20;;
11113;SDS011;5610;52.154;9.198;2023-08-12T14:27:52;2.00;;;1.37;;
11113;SDS011;5610;52.154;9.198;2023-08-12T14:30:37;1.77;;;1.30;;
11113;SDS011;5610;52.154;9.198;2023-08-12T14:33:23;6.90;;;2.70;;
11113;SDS011;5610;52.154;9.198;2023-08-12T14:36:08;5.27;;;1.93;;
11113;SDS011;5610;52.154;9.198;2023-08-12T14:38:53;2.60;;;1.50;;
11113;SDS011;5610;52.154;9.198;2023-08-12T14:41:39;1.57;;;1.30;;
11113;SDS011;5610;52.154;9.198;2023-08-12T14:44:25;1.60;;;1.50;;
11113;SDS011;5610;52.154;9.198;2023-08-12T14:47:10;1.53;;;1.40;;
11113;SDS011;5610;52.154;9.198;2023-08-12T14:49:55;1.63;;;1.50;;
11113;SDS011;5610;52.154;9.198;2023-08-12T14:52:40;1.83;;;1.30;;
11113;SDS011;5610;52.154;9.198;2023-08-12T14:55:25;1.83;;;1.50;;
11113;SDS011;5610;52.154;9.198;2023-08-12T14:58:12;1.67;;;1.57;;
11113;SDS011;5610;52.154;9.198;2023-08-12T15:00:57;1.57;;;1.40;;
11113;SDS011;5610;52.154;9.198;2023-08-12T15:03:44;1.40;;;1.30;;
11113;SDS011;5610;52.154;9.198;2023-08-12T15:06:29;2.03;;;1.80;;
11113;SDS011;5610;52.154;9.198;2023-08-12T15:09:14;1.50;;;1.40;;
11113;SDS011;5610;52.154;9.198;2023-08-12T15:12:00;2.10;;;1.83;;
11113;SDS011;5610;52.154;9.198;2023-08-12T15:14:46;2.93;;;1.90;;
11113;SDS011;5610;52.154;9.198;2023-08-12T15:17:32;1.80;;;1.70;;
11113;SDS011;5610;52.154;9.198;2023-08-12T15:20:17;2.00;;;1.80;;
11113;SDS011;5610;52.154;9.198;2023-08-12T15:23:02;2.20;;;2.00;;
11113;SDS011;5610;52.154;9.198;2023-08-12T15:25:48;2.30;;;2.20;;
11113;SDS011;5610;52.154;9.198;2023-08-12T15:28:33;2.83;;;2.63;;
11113;SDS011;5610;52.154;9.198;2023-08-12T15:31:19;2.40;;;2.30;;
11113;SDS011;5610;52.154;9.198;2023-08-12T15:34:04;2.33;;;2.13;;
11113;SDS011;5610;52.154;9.198;2023-08-12T15:36:50;2.70;;;2.50;;
11113;SDS011;5610;52.154;9.198;2023-08-12T15:39:35;2.80;;;2.60;;
11113;SDS011;5610;52.154;9.198;2023-08-12T15:42:20;2.70;;;2.50;;
11113;SDS011;5610;52.154;9.198;2023-08-12T15:45:06;2.40;;;2.20;;
11113;SDS011;5610;52.154;9.198;2023-08-12T15:47:53;3.47;;;2.33;;
11113;SDS011;5610;52.154;9.198;2023-08-12T15:50:38;2.53;;;2.10;;
11113;SDS011;5610;52.154;9.198;2023-08-12T15:53:24;2.53;;;2.20;;
11113;SDS011;5610;52.154;9.198;2023-08-12T15:56:09;2.60;;;2.20;;
11113;SDS011;5610;52.154;9.198;2023-08-12T15:58:54;2.00;;;1.90;;
11113;SDS011;5610;52.154;9.198;2023-08-12T16:01:40;2.07;;;1.93;;
11113;SDS011;5610;52.154;9.198;2023-08-12T16:04:26;2.03;;;1.93;;
11113;SDS011;5610;52.154;9.198;2023-08-12T16:07:11;2.17;;;2.00;;
11113;SDS011;5610;52.154;9.198;2023-08-12T16:09:56;1.83;;;1.73;;
11113;SDS011;5610;52.154;9.198;2023-08-12T16:12:42;1.70;;;1.60;;
11113;SDS011;5610;52.154;9.198;2023-08-12T16:15:27;2.27;;;2.07;;
11113;SDS011;5610;52.154;9.198;2023-08-12T16:18:12;2.83;;;1.80;;
11113;SDS011;5610;52.154;9.198;2023-08-12T16:20:59;2.17;;;2.07;;
11113;SDS011;5610;52.154;9.198;2023-08-12T16:23:44;3.87;;;2.00;;
11113;SDS011;5610;52.154;9.198;2023-08-12T16:26:29;2.10;;;2.00;;
11113;SDS011;5610;52.154;9.198;2023-08-12T16:29:14;2.10;;;2.00;;
11113;SDS011;5610;52.154;9.198;2023-08-12T16:32:00;1.87;;;1.60;;
11113;SDS011;5610;52.154;9.198;2023-08-12T16:34:45;1.60;;;1.50;;
11113;SDS011;5610;52.154;9.198;2023-08-12T16:37:32;1.80;;;1.70;;
11113;SDS011;5610;52.154;9.198;2023-08-12T16:40:17;1.80;;;1.70;;
11113;SDS011;5610;52.154;9.198;2023-08-12T16:43:03;1.77;;;1.50;;
11113;SDS011;5610;52.154;9.198;2023-08-12T16:45:48;2.00;;;1.57;;